sensor_id;sensor_type;location;lat;lon;timestamp;pressure;altitude;pressure_sealevel;temperature;humidity
62038;BME280;47991;42.974;12.082;2023-07-20T00:02:06;97310.55;;;25.21;75.92
62038;BME280;47991;42.974;12.082;2023-07-20T00:04:34;97321.13;;;25.18;75.79
62038;BME280;47991;42.974;12.082;2023-07-20T00:07:01;97321.92;;;25.17;75.90
62038;BME280;47991;42.974;12.082;2023-07-20T00:09:28;97324.83;;;25.15;75.71
62038;BME280;47991;42.974;12.082;2023-07-20T00:11:55;97323.73;;;25.14;75.74
62038;BME280;47991;42.974;12.082;2023-07-20T00:14:22;97319.38;;;25.10;77.39
62038;BME280;47991;42.974;12.082;2023-07-20T00:16:52;97316.11;;;25.08;77.03
62038;BME280;47991;42.974;12.082;2023-07-20T00:19:23;97318.48;;;25.08;78.18
62038;BME280;47991;42.974;12.082;2023-07-20T00:21:51;97321.91;;;25.08;77.47
62038;BME280;47991;42.974;12.082;2023-07-20T00:24:18;97327.86;;;25.03;78.61
62038;BME280;47991;42.974;12.082;2023-07-20T00:26:45;97331.75;;;24.96;79.42
62038;BME280;47991;42.974;12.082;2023-07-20T00:29:12;97333.88;;;24.92;80.05
62038;BME280;47991;42.974;12.082;2023-07-20T00:31:39;97339.38;;;24.92;79.72
62038;BME280;47991;42.974;12.082;2023-07-20T00:34:06;97343.32;;;24.80;81.99
62038;BME280;47991;42.974;12.082;2023-07-20T00:36:33;97344.41;;;24.67;83.71
62038;BME280;47991;42.974;12.082;2023-07-20T00:39:00;97343.61;;;24.61;83.91
62038;BME280;47991;42.974;12.082;2023-07-20T00:41:27;97339.95;;;24.56;84.96
62038;BME280;47991;42.974;12.082;2023-07-20T00:43:56;97340.16;;;24.58;84.23
62038;BME280;47991;42.974;12.082;2023-07-20T00:46:23;97343.83;;;24.57;84.25
62038;BME280;47991;42.974;12.082;2023-07-20T00:48:53;97343.83;;;24.51;86.03
62038;BME280;47991;42.974;12.082;2023-07-20T00:51:23;97340.55;;;24.45;86.93
62038;BME280;47991;42.974;12.082;2023-07-20T00:53:50;97339.77;;;24.44;86.63
62038;BME280;47991;42.974;12.082;2023-07-20T00:56:17;97340.05;;;24.51;86.02
62038;BME280;47991;42.974;12.082;2023-07-20T00:58:45;97334.70;;;24.64;82.94
62038;BME280;47991;42.974;12.082;2023-07-20T01:01:13;97334.11;;;24.76;82.29
62038;BME280;47991;42.974;12.082;2023-07-20T01:03:40;97328.99;;;24.85;81.70
62038;BME280;47991;42.974;12.082;2023-07-20T01:09:18;97318.16;;;24.88;83.32
62038;BME280;47991;42.974;12.082;2023-07-20T01:14:45;97306.38;;;24.92;80.87
62038;BME280;47991;42.974;12.082;2023-07-20T01:17:11;97299.83;;;24.97;80.47
62038;BME280;47991;42.974;12.082;2023-07-20T01:19:39;97295.29;;;25.01;80.49
62038;BME280;47991;42.974;12.082;2023-07-20T01:22:29;97293.63;;;25.03;80.23
62038;BME280;47991;42.974;12.082;2023-07-20T01:25:25;97287.20;;;25.02;80.12
62038;BME280;47991;42.974;12.082;2023-07-20T01:33:09;97277.08;;;25.04;79.54
62038;BME280;47991;42.974;12.082;2023-07-20T01:35:36;97278.70;;;25.00;79.92
62038;BME280;47991;42.974;12.082;2023-07-20T01:38:06;97278.39;;;24.92;80.26
62038;BME280;47991;42.974;12.082;2023-07-20T01:40:34;97277.67;;;24.88;81.06
62038;BME280;47991;42.974;12.082;2023-07-20T01:43:02;97279.55;;;24.86;80.41
62038;BME280;47991;42.974;12.082;2023-07-20T01:45:29;97276.73;;;24.89;80.34
62038;BME280;47991;42.974;12.082;2023-07-20T01:47:57;97276.98;;;24.88;80.93
62038;BME280;47991;42.974;12.082;2023-07-20T01:50:23;97276.86;;;24.91;80.51
62038;BME280;47991;42.974;12.082;2023-07-20T01:52:51;97274.77;;;24.90;80.50
62038;BME280;47991;42.974;12.082;2023-07-20T01:55:17;97271.15;;;24.90;80.99
62038;BME280;47991;42.974;12.082;2023-07-20T01:57:44;97264.91;;;24.91;80.64
62038;BME280;47991;42.974;12.082;2023-07-20T02:00:12;97262.17;;;24.91;80.45
62038;BME280;47991;42.974;12.082;2023-07-20T02:02:39;97262.73;;;24.89;80.60
62038;BME280;47991;42.974;12.082;2023-07-20T02:05:07;97262.56;;;24.85;80.60
62038;BME280;47991;42.974;12.082;2023-07-20T02:07:34;97262.14;;;24.84;81.27
62038;BME280;47991;42.974;12.082;2023-07-20T02:10:01;97261.31;;;24.83;81.13
62038;BME280;47991;42.974;12.082;2023-07-20T02:12:28;97256.86;;;24.81;80.88
62038;BME280;47991;42.974;12.082;2023-07-20T02:14:55;97261.40;;;24.79;80.70
62038;BME280;47991;42.974;12.082;2023-07-20T02:17:22;97265.04;;;24.76;81.12
62038;BME280;47991;42.974;12.082;2023-07-20T02:19:53;97261.41;;;24.73;80.83
62038;BME280;47991;42.974;12.082;2023-07-20T02:22:21;97259.13;;;24.72;80.95
62038;BME280;47991;42.974;12.082;2023-07-20T02:24:48;97265.81;;;24.70;80.94
62038;BME280;47991;42.974;12.082;2023-07-20T02:27:17;97268.55;;;24.68;80.92
62038;BME280;47991;42.974;12.082;2023-07-20T02:29:44;97271.48;;;24.66;80.83
62038;BME280;47991;42.974;12.082;2023-07-20T02:32:11;97269.32;;;24.63;80.71
62038;BME280;47991;42.974;12.082;2023-07-20T02:34:38;97268.06;;;24.63;80.51
62038;BME280;47991;42.974;12.082;2023-07-20T02:37:05;97267.13;;;24.63;80.47
62038;BME280;47991;42.974;12.082;2023-07-20T02:39:32;97269.21;;;24.65;80.60
62038;BME280;47991;42.974;12.082;2023-07-20T02:42:00;97269.94;;;24.62;80.78
62038;BME280;47991;42.974;12.082;2023-07-20T02:44:27;97269.25;;;24.60;80.83
62038;BME280;47991;42.974;12.082;2023-07-20T02:46:54;97274.35;;;24.60;80.89
62038;BME280;47991;42.974;12.082;2023-07-20T02:49:21;97276.03;;;24.61;80.63
62038;BME280;47991;42.974;12.082;2023-07-20T02:51:48;97272.84;;;24.61;80.70
62038;BME280;47991;42.974;12.082;2023-07-20T02:54:15;97269.25;;;24.45;81.35
62038;BME280;47991;42.974;12.082;2023-07-20T02:56:42;97266.10;;;24.26;81.47
62038;BME280;47991;42.974;12.082;2023-07-20T02:59:10;97267.16;;;24.22;81.41
62038;BME280;47991;42.974;12.082;2023-07-20T03:01:36;97271.11;;;24.20;81.74
62038;BME280;47991;42.974;12.082;2023-07-20T03:04:04;97272.19;;;24.09;81.53
62038;BME280;47991;42.974;12.082;2023-07-20T03:06:31;97270.36;;;24.07;81.64
62038;BME280;47991;42.974;12.082;2023-07-20T03:08:58;97263.09;;;24.09;81.61
62038;BME280;47991;42.974;12.082;2023-07-20T03:11:25;97263.52;;;24.11;81.18
62038;BME280;47991;42.974;12.082;2023-07-20T03:13:52;97263.69;;;24.09;81.15
62038;BME280;47991;42.974;12.082;2023-07-20T03:16:19;97265.34;;;24.09;82.21
62038;BME280;47991;42.974;12.082;2023-07-20T03:18:46;97264.52;;;23.90;82.35
62038;BME280;47991;42.974;12.082;2023-07-20T03:21:13;97263.88;;;23.79;81.90
62038;BME280;47991;42.974;12.082;2023-07-20T03:23:41;97260.46;;;23.72;81.71
62038;BME280;47991;42.974;12.082;2023-07-20T03:26:08;97252.98;;;23.69;82.47
62038;BME280;47991;42.974;12.082;2023-07-20T03:28:39;97257.52;;;23.63;82.63
62038;BME280;47991;42.974;12.082;2023-07-20T03:31:05;97261.64;;;23.59;82.22
62038;BME280;47991;42.974;12.082;2023-07-20T03:33:33;97265.20;;;23.45;83.19
62038;BME280;47991;42.974;12.082;2023-07-20T03:36:01;97270.58;;;23.33;83.43
62038;BME280;47991;42.974;12.082;2023-07-20T03:38:28;97270.96;;;23.38;83.08
62038;BME280;47991;42.974;12.082;2023-07-20T03:40:56;97265.45;;;23.37;83.37
62038;BME280;47991;42.974;12.082;2023-07-20T03:43:25;97272.89;;;23.36;83.02
62038;BME280;47991;42.974;12.082;2023-07-20T03:45:53;97275.31;;;23.37;82.69
62038;BME280;47991;42.974;12.082;2023-07-20T03:48:24;97277.81;;;23.33;82.85
62038;BME280;47991;42.974;12.082;2023-07-20T03:50:53;97276.92;;;23.39;82.92
62038;BME280;47991;42.974;12.082;2023-07-20T03:53:21;97281.08;;;23.33;84.49
62038;BME280;47991;42.974;12.082;2023-07-20T03:55:52;97287.66;;;23.22;85.53
62038;BME280;47991;42.974;12.082;2023-07-20T03:58:19;97293.17;;;23.14;85.53
62038;BME280;47991;42.974;12.082;2023-07-20T04:00:50;97296.61;;;23.08;85.13
62038;BME280;47991;42.974;12.082;2023-07-20T04:03:19;97298.52;;;23.11;84.37
62038;BME280;47991;42.974;12.082;2023-07-20T04:05:46;97301.05;;;23.19;83.73
62038;BME280;47991;42.974;12.082;2023-07-20T04:08:13;97304.25;;;23.24;83.37
62038;BME280;47991;42.974;12.082;2023-07-20T04:10:43;97298.08;;;23.20;83.05
62038;BME280;47991;42.974;12.082;2023-07-20T04:13:11;97302.02;;;23.26;82.97
62038;BME280;47991;42.974;12.082;2023-07-20T04:15:38;97309.11;;;23.32;82.57
62038;BME280;47991;42.974;12.082;2023-07-20T04:18:06;97304.45;;;23.26;82.36
62038;BME280;47991;42.974;12.082;2023-07-20T04:20:33;97300.35;;;23.27;82.15
62038;BME280;47991;42.974;12.082;2023-07-20T04:23:00;97301.02;;;23.34;81.97
62038;BME280;47991;42.974;12.082;2023-07-20T04:32:41;97304.98;;;23.55;80.64
62038;BME280;47991;42.974;12.082;2023-07-20T04:35:11;97302.62;;;23.55;81.34
62038;BME280;47991;42.974;12.082;2023-07-20T04:37:39;97296.64;;;23.65;80.99
62038;BME280;47991;42.974;12.082;2023-07-20T04:40:15;97289.29;;;23.91;80.41
62038;BME280;47991;42.974;12.082;2023-07-20T04:42:42;97290.61;;;24.08;79.58
62038;BME280;47991;42.974;12.082;2023-07-20T04:45:09;97294.31;;;24.16;78.96
62038;BME280;47991;42.974;12.082;2023-07-20T04:47:36;97292.77;;;24.22;78.77
62038;BME280;47991;42.974;12.082;2023-07-20T04:50:04;97294.35;;;24.29;78.51
62038;BME280;47991;42.974;12.082;2023-07-20T04:52:31;97293.16;;;24.30;78.23
62038;BME280;47991;42.974;12.082;2023-07-20T04:54:59;97290.75;;;24.40;78.32
62038;BME280;47991;42.974;12.082;2023-07-20T04:57:26;97284.83;;;24.56;77.90
62038;BME280;47991;42.974;12.082;2023-07-20T04:59:53;97281.87;;;24.74;77.29
62038;BME280;47991;42.974;12.082;2023-07-20T05:02:20;97277.54;;;24.92;76.71
62038;BME280;47991;42.974;12.082;2023-07-20T05:04:47;97273.59;;;25.07;76.29
62038;BME280;47991;42.974;12.082;2023-07-20T05:07:14;97277.52;;;25.18;75.73
62038;BME280;47991;42.974;12.082;2023-07-20T05:09:41;97273.19;;;25.26;75.91
62038;BME280;47991;42.974;12.082;2023-07-20T05:12:08;97266.91;;;25.33;75.88
62038;BME280;47991;42.974;12.082;2023-07-20T05:14:35;97263.21;;;25.81;75.19
62038;BME280;47991;42.974;12.082;2023-07-20T05:17:06;97262.71;;;26.31;72.70
62038;BME280;47991;42.974;12.082;2023-07-20T05:19:33;97267.60;;;26.57;71.65
62038;BME280;47991;42.974;12.082;2023-07-20T05:22:00;97263.91;;;27.00;71.65
62038;BME280;47991;42.974;12.082;2023-07-20T05:24:27;97266.58;;;27.53;70.54
62038;BME280;47991;42.974;12.082;2023-07-20T05:26:54;97267.67;;;28.01;68.64
62038;BME280;47991;42.974;12.082;2023-07-20T05:29:21;97271.36;;;28.26;66.46
62038;BME280;47991;42.974;12.082;2023-07-20T05:31:48;97263.96;;;28.11;65.89
62038;BME280;47991;42.974;12.082;2023-07-20T05:34:15;97265.75;;;28.37;66.63
62038;BME280;47991;42.974;12.082;2023-07-20T05:36:42;97264.59;;;28.38;65.71
62038;BME280;47991;42.974;12.082;2023-07-20T05:39:09;97268.44;;;28.49;65.00
62038;BME280;47991;42.974;12.082;2023-07-20T05:41:36;97269.21;;;29.05;65.09
62038;BME280;47991;42.974;12.082;2023-07-20T05:44:03;97263.39;;;29.53;62.21
62038;BME280;47991;42.974;12.082;2023-07-20T05:46:30;97268.80;;;29.62;60.70
62038;BME280;47991;42.974;12.082;2023-07-20T05:48:57;97266.80;;;29.84;59.96
62038;BME280;47991;42.974;12.082;2023-07-20T05:51:24;97275.02;;;30.00;60.07
62038;BME280;47991;42.974;12.082;2023-07-20T05:53:51;97271.20;;;30.05;59.76
62038;BME280;47991;42.974;12.082;2023-07-20T05:56:18;97273.52;;;30.07;59.77
62038;BME280;47991;42.974;12.082;2023-07-20T05:58:45;97278.98;;;29.81;60.51
62038;BME280;47991;42.974;12.082;2023-07-20T06:01:11;97282.21;;;29.51;61.47
62038;BME280;47991;42.974;12.082;2023-07-20T06:03:39;97280.20;;;29.11;62.85
62038;BME280;47991;42.974;12.082;2023-07-20T06:06:06;97281.74;;;28.77;64.22
62038;BME280;47991;42.974;12.082;2023-07-20T06:08:33;97284.92;;;28.71;64.77
62038;BME280;47991;42.974;12.082;2023-07-20T06:11:00;97285.73;;;28.66;64.91
62038;BME280;47991;42.974;12.082;2023-07-20T06:13:27;97285.50;;;28.54;65.19
62038;BME280;47991;42.974;12.082;2023-07-20T06:15:54;97283.98;;;28.31;65.76
62038;BME280;47991;42.974;12.082;2023-07-20T06:18:23;97283.89;;;28.32;66.14
62038;BME280;47991;42.974;12.082;2023-07-20T06:20:51;97288.58;;;28.29;66.69
62038;BME280;47991;42.974;12.082;2023-07-20T06:23:19;97290.38;;;28.25;66.29
62038;BME280;47991;42.974;12.082;2023-07-20T06:25:46;97292.84;;;27.98;67.20
62038;BME280;47991;42.974;12.082;2023-07-20T06:28:13;97295.89;;;28.14;67.64
62038;BME280;47991;42.974;12.082;2023-07-20T06:30:40;97294.77;;;28.33;66.36
62038;BME280;47991;42.974;12.082;2023-07-20T06:33:07;97292.19;;;28.45;66.45
62038;BME280;47991;42.974;12.082;2023-07-20T06:35:34;97293.30;;;28.79;65.52
62038;BME280;47991;42.974;12.082;2023-07-20T06:38:02;97292.72;;;29.01;63.98
62038;BME280;47991;42.974;12.082;2023-07-20T06:40:30;97297.45;;;29.18;63.85
62038;BME280;47991;42.974;12.082;2023-07-20T06:42:57;97288.11;;;29.25;63.40
62038;BME280;47991;42.974;12.082;2023-07-20T06:45:24;97289.98;;;29.19;63.55
62038;BME280;47991;42.974;12.082;2023-07-20T06:47:52;97294.80;;;29.17;64.05
62038;BME280;47991;42.974;12.082;2023-07-20T06:50:19;97293.30;;;29.47;63.45
62038;BME280;47991;42.974;12.082;2023-07-20T06:52:46;97292.91;;;29.36;63.17
62038;BME280;47991;42.974;12.082;2023-07-20T06:55:14;97290.98;;;29.15;63.75
62038;BME280;47991;42.974;12.082;2023-07-20T06:57:42;97292.92;;;29.12;63.26
62038;BME280;47991;42.974;12.082;2023-07-20T07:00:09;97296.77;;;29.11;63.80
62038;BME280;47991;42.974;12.082;2023-07-20T07:02:37;97296.46;;;29.02;62.69
62038;BME280;47991;42.974;12.082;2023-07-20T07:05:05;97296.78;;;29.06;61.12
62038;BME280;47991;42.974;12.082;2023-07-20T07:07:33;97296.10;;;28.87;58.67
62038;BME280;47991;42.974;12.082;2023-07-20T07:10:00;97295.98;;;29.16;58.23
62038;BME280;47991;42.974;12.082;2023-07-20T07:12:28;97292.83;;;29.22;56.34
62038;BME280;47991;42.974;12.082;2023-07-20T07:14:55;97287.58;;;29.67;57.34
62038;BME280;47991;42.974;12.082;2023-07-20T07:17:22;97286.58;;;30.06;56.63
62038;BME280;47991;42.974;12.082;2023-07-20T07:19:49;97283.49;;;30.07;54.42
62038;BME280;47991;42.974;12.082;2023-07-20T07:22:18;97287.52;;;30.02;53.69
62038;BME280;47991;42.974;12.082;2023-07-20T07:24:48;97281.20;;;30.11;52.84
62038;BME280;47991;42.974;12.082;2023-07-20T07:27:15;97280.86;;;30.09;51.66
62038;BME280;47991;42.974;12.082;2023-07-20T07:29:45;97280.97;;;29.83;52.20
62038;BME280;47991;42.974;12.082;2023-07-20T07:32:12;97276.84;;;30.13;51.47
62038;BME280;47991;42.974;12.082;2023-07-20T07:34:39;97280.16;;;29.87;50.26
62038;BME280;47991;42.974;12.082;2023-07-20T07:37:07;97282.80;;;29.60;50.99
62038;BME280;47991;42.974;12.082;2023-07-20T07:39:33;97281.65;;;29.52;51.77
62038;BME280;47991;42.974;12.082;2023-07-20T07:42:01;97277.33;;;29.77;51.26
62038;BME280;47991;42.974;12.082;2023-07-20T07:44:27;97273.38;;;29.87;50.62
62038;BME280;47991;42.974;12.082;2023-07-20T07:46:54;97268.26;;;30.19;51.80
62038;BME280;47991;42.974;12.082;2023-07-20T07:49:21;97268.66;;;30.51;51.54
62038;BME280;47991;42.974;12.082;2023-07-20T07:51:48;97263.64;;;30.77;50.28
62038;BME280;47991;42.974;12.082;2023-07-20T07:54:15;97267.46;;;31.02;49.84
62038;BME280;47991;42.974;12.082;2023-07-20T07:56:41;97270.16;;;31.20;49.04
62038;BME280;47991;42.974;12.082;2023-07-20T07:59:09;97271.86;;;31.35;48.39
62038;BME280;47991;42.974;12.082;2023-07-20T08:01:36;97269.16;;;31.48;48.43
62038;BME280;47991;42.974;12.082;2023-07-20T08:04:03;97270.24;;;31.60;48.21
62038;BME280;47991;42.974;12.082;2023-07-20T08:06:30;97269.56;;;31.52;47.90
62038;BME280;47991;42.974;12.082;2023-07-20T08:08:58;97273.04;;;31.61;46.45
62038;BME280;47991;42.974;12.082;2023-07-20T08:11:25;97276.86;;;31.72;47.43
62038;BME280;47991;42.974;12.082;2023-07-20T08:13:51;97281.62;;;31.78;47.11
62038;BME280;47991;42.974;12.082;2023-07-20T08:16:18;97278.14;;;31.89;48.06
62038;BME280;47991;42.974;12.082;2023-07-20T08:18:45;97280.77;;;32.08;47.76
62038;BME280;47991;42.974;12.082;2023-07-20T08:21:12;97289.13;;;32.19;47.23
62038;BME280;47991;42.974;12.082;2023-07-20T08:23:40;97289.21;;;32.15;47.06
62038;BME280;47991;42.974;12.082;2023-07-20T08:26:07;97292.29;;;31.87;47.16
62038;BME280;47991;42.974;12.082;2023-07-20T08:28:34;97285.70;;;31.53;47.73
62038;BME280;47991;42.974;12.082;2023-07-20T08:31:01;97286.31;;;31.83;48.29
62038;BME280;47991;42.974;12.082;2023-07-20T08:33:29;97288.48;;;31.87;47.89
62038;BME280;47991;42.974;12.082;2023-07-20T08:36:03;97283.14;;;31.76;47.86
62038;BME280;47991;42.974;12.082;2023-07-20T08:38:30;97283.62;;;31.70;48.00
62038;BME280;47991;42.974;12.082;2023-07-20T08:40:57;97279.88;;;31.77;48.35
62038;BME280;47991;42.974;12.082;2023-07-20T08:43:27;97288.02;;;31.87;47.76
62038;BME280;47991;42.974;12.082;2023-07-20T08:45:55;97289.96;;;32.08;47.46
62038;BME280;47991;42.974;12.082;2023-07-20T08:48:27;97291.38;;;32.20;48.03
62038;BME280;47991;42.974;12.082;2023-07-20T08:50:54;97290.53;;;32.12;47.63
62038;BME280;47991;42.974;12.082;2023-07-20T08:53:22;97297.19;;;32.32;48.29
62038;BME280;47991;42.974;12.082;2023-07-20T08:55:51;97296.71;;;32.68;47.56
62038;BME280;47991;42.974;12.082;2023-07-20T08:58:20;97299.32;;;32.92;47.05
62038;BME280;47991;42.974;12.082;2023-07-20T09:00:50;97298.69;;;33.06;45.77
62038;BME280;47991;42.974;12.082;2023-07-20T09:03:18;97295.14;;;33.18;46.39
62038;BME280;47991;42.974;12.082;2023-07-20T09:05:45;97293.56;;;33.13;45.64
62038;BME280;47991;42.974;12.082;2023-07-20T09:08:12;97295.14;;;33.09;44.08
62038;BME280;47991;42.974;12.082;2023-07-20T09:10:40;97292.27;;;32.87;44.61
62038;BME280;47991;42.974;12.082;2023-07-20T09:13:07;97294.02;;;32.94;44.33
62038;BME280;47991;42.974;12.082;2023-07-20T09:15:33;97291.42;;;33.20;44.07
62038;BME280;47991;42.974;12.082;2023-07-20T09:18:01;97294.11;;;33.39;43.64
62038;BME280;47991;42.974;12.082;2023-07-20T09:20:32;97300.64;;;33.53;44.02
62038;BME280;47991;42.974;12.082;2023-07-20T09:23:04;97303.88;;;33.66;43.69
62038;BME280;47991;42.974;12.082;2023-07-20T09:25:32;97300.27;;;33.65;43.09
62038;BME280;47991;42.974;12.082;2023-07-20T09:28:02;97299.66;;;33.46;42.83
62038;BME280;47991;42.974;12.082;2023-07-20T09:30:30;97293.39;;;33.33;43.45
62038;BME280;47991;42.974;12.082;2023-07-20T09:32:58;97292.69;;;32.93;42.34
62038;BME280;47991;42.974;12.082;2023-07-20T09:35:25;97289.36;;;32.90;42.64
62038;BME280;47991;42.974;12.082;2023-07-20T09:38:00;97284.34;;;32.86;42.16
62038;BME280;47991;42.974;12.082;2023-07-20T09:40:27;97281.84;;;33.02;43.17
62038;BME280;47991;42.974;12.082;2023-07-20T09:42:55;97279.77;;;33.16;43.63
62038;BME280;47991;42.974;12.082;2023-07-20T09:45:33;97281.40;;;33.28;43.96
62038;BME280;47991;42.974;12.082;2023-07-20T09:48:04;97281.04;;;33.49;43.01
62038;BME280;47991;42.974;12.082;2023-07-20T09:50:43;97276.67;;;33.67;43.11
62038;BME280;47991;42.974;12.082;2023-07-20T09:53:12;97277.98;;;33.96;42.68
62038;BME280;47991;42.974;12.082;2023-07-20T09:55:43;97271.14;;;34.17;42.46
62038;BME280;47991;42.974;12.082;2023-07-20T09:58:10;97277.20;;;34.39;41.90
62038;BME280;47991;42.974;12.082;2023-07-20T10:00:39;97276.48;;;34.57;40.66
62038;BME280;47991;42.974;12.082;2023-07-20T10:03:06;97277.14;;;34.78;40.69
62038;BME280;47991;42.974;12.082;2023-07-20T10:05:35;97275.61;;;34.94;40.96
62038;BME280;47991;42.974;12.082;2023-07-20T10:08:03;97274.41;;;35.06;39.85
62038;BME280;47991;42.974;12.082;2023-07-20T10:10:34;97273.35;;;35.14;41.07
62038;BME280;47991;42.974;12.082;2023-07-20T10:13:02;97271.20;;;35.16;40.70
62038;BME280;47991;42.974;12.082;2023-07-20T10:15:36;97272.39;;;35.08;40.47
62038;BME280;47991;42.974;12.082;2023-07-20T10:18:07;97271.83;;;35.07;39.69
62038;BME280;47991;42.974;12.082;2023-07-20T10:20:39;97275.86;;;34.92;40.16
62038;BME280;47991;42.974;12.082;2023-07-20T10:23:08;97276.80;;;34.91;39.86
62038;BME280;47991;42.974;12.082;2023-07-20T10:25:35;97276.70;;;34.91;40.01
62038;BME280;47991;42.974;12.082;2023-07-20T10:28:05;97274.67;;;34.96;40.13
62038;BME280;47991;42.974;12.082;2023-07-20T10:30:34;97275.86;;;34.93;40.99
62038;BME280;47991;42.974;12.082;2023-07-20T10:33:03;97276.75;;;34.93;41.37
62038;BME280;47991;42.974;12.082;2023-07-20T10:35:30;97279.63;;;34.87;41.33
62038;BME280;47991;42.974;12.082;2023-07-20T10:38:01;97280.70;;;34.76;42.40
62038;BME280;47991;42.974;12.082;2023-07-20T10:40:33;97280.05;;;34.90;42.40
62038;BME280;47991;42.974;12.082;2023-07-20T10:43:03;97276.04;;;35.02;41.38
62038;BME280;47991;42.974;12.082;2023-07-20T10:45:51;97275.16;;;35.22;41.11
62038;BME280;47991;42.974;12.082;2023-07-20T10:48:21;97274.95;;;35.33;40.62
62038;BME280;47991;42.974;12.082;2023-07-20T10:51:14;97272.99;;;35.32;42.14
62038;BME280;47991;42.974;12.082;2023-07-20T10:53:48;97272.77;;;35.08;42.39
62038;BME280;47991;42.974;12.082;2023-07-20T10:56:22;97277.55;;;34.95;43.28
62038;BME280;47991;42.974;12.082;2023-07-20T10:58:57;97271.99;;;34.87;43.22
62038;BME280;47991;42.974;12.082;2023-07-20T11:01:30;97269.36;;;34.82;43.14
62038;BME280;47991;42.974;12.082;2023-07-20T11:04:00;97269.45;;;34.95;42.84
62038;BME280;47991;42.974;12.082;2023-07-20T11:09:11;97265.81;;;35.12;40.94
62038;BME280;47991;42.974;12.082;2023-07-20T11:11:47;97262.52;;;35.26;38.49
62038;BME280;47991;42.974;12.082;2023-07-20T11:14:25;97266.23;;;35.52;38.32
62038;BME280;47991;42.974;12.082;2023-07-20T11:16:52;97261.90;;;35.82;38.00
62038;BME280;47991;42.974;12.082;2023-07-20T11:19:24;97259.23;;;35.96;36.63
62038;BME280;47991;42.974;12.082;2023-07-20T11:21:55;97257.88;;;36.14;38.21
62038;BME280;47991;42.974;12.082;2023-07-20T11:24:39;97262.02;;;36.15;38.10
62038;BME280;47991;42.974;12.082;2023-07-20T11:27:06;97260.98;;;36.01;38.07
62038;BME280;47991;42.974;12.082;2023-07-20T11:29:35;97256.36;;;35.99;38.28
62038;BME280;47991;42.974;12.082;2023-07-20T11:32:03;97257.09;;;36.08;37.04
62038;BME280;47991;42.974;12.082;2023-07-20T11:34:31;97250.06;;;36.12;37.75
62038;BME280;47991;42.974;12.082;2023-07-20T11:36:59;97246.22;;;35.99;35.80
62038;BME280;47991;42.974;12.082;2023-07-20T11:39:26;97247.00;;;35.92;36.15
62038;BME280;47991;42.974;12.082;2023-07-20T11:41:57;97242.77;;;36.10;36.23
62038;BME280;47991;42.974;12.082;2023-07-20T11:44:26;97246.26;;;36.21;36.90
62038;BME280;47991;42.974;12.082;2023-07-20T11:47:04;97239.86;;;36.28;36.82
62038;BME280;47991;42.974;12.082;2023-07-20T11:49:44;97237.73;;;36.24;36.69
62038;BME280;47991;42.974;12.082;2023-07-20T11:52:16;97231.27;;;36.15;35.54
62038;BME280;47991;42.974;12.082;2023-07-20T11:54:44;97228.48;;;36.15;36.54
62038;BME280;47991;42.974;12.082;2023-07-20T11:57:20;97229.63;;;36.07;36.47
62038;BME280;47991;42.974;12.082;2023-07-20T12:00:16;97225.35;;;36.04;36.01
62038;BME280;47991;42.974;12.082;2023-07-20T12:02:43;97225.55;;;36.13;36.25
62038;BME280;47991;42.974;12.082;2023-07-20T12:05:11;97224.92;;;36.27;36.11
62038;BME280;47991;42.974;12.082;2023-07-20T12:07:38;97224.48;;;36.16;35.32
62038;BME280;47991;42.974;12.082;2023-07-20T12:10:10;97215.29;;;36.25;36.14
62038;BME280;47991;42.974;12.082;2023-07-20T12:12:41;97217.73;;;36.47;36.38
62038;BME280;47991;42.974;12.082;2023-07-20T12:15:30;97216.34;;;36.60;36.25
62038;BME280;47991;42.974;12.082;2023-07-20T12:18:02;97218.36;;;36.65;35.34
62038;BME280;47991;42.974;12.082;2023-07-20T12:20:30;97215.73;;;36.68;36.04
62038;BME280;47991;42.974;12.082;2023-07-20T12:23:02;97211.56;;;36.70;34.47
62038;BME280;47991;42.974;12.082;2023-07-20T12:25:42;97211.66;;;36.71;35.87
62038;BME280;47991;42.974;12.082;2023-07-20T12:28:12;97211.82;;;36.70;35.81
62038;BME280;47991;42.974;12.082;2023-07-20T12:30:40;97205.42;;;36.76;36.16
62038;BME280;47991;42.974;12.082;2023-07-20T12:33:08;97202.25;;;36.66;36.04
62038;BME280;47991;42.974;12.082;2023-07-20T12:35:35;97198.80;;;36.53;37.18
62038;BME280;47991;42.974;12.082;2023-07-20T12:38:02;97197.77;;;36.68;36.09
62038;BME280;47991;42.974;12.082;2023-07-20T12:40:29;97193.11;;;36.59;35.36
62038;BME280;47991;42.974;12.082;2023-07-20T12:42:57;97188.82;;;36.40;36.02
62038;BME280;47991;42.974;12.082;2023-07-20T12:45:25;97186.83;;;36.53;37.39
62038;BME280;47991;42.974;12.082;2023-07-20T12:47:51;97184.67;;;36.68;36.86
62038;BME280;47991;42.974;12.082;2023-07-20T12:50:18;97187.02;;;36.76;36.28
62038;BME280;47991;42.974;12.082;2023-07-20T12:52:45;97183.83;;;36.76;35.50
62038;BME280;47991;42.974;12.082;2023-07-20T12:55:12;97184.34;;;36.85;34.53
62038;BME280;47991;42.974;12.082;2023-07-20T12:57:40;97186.12;;;37.01;34.89
62038;BME280;47991;42.974;12.082;2023-07-20T13:00:10;97185.34;;;37.06;35.04
62038;BME280;47991;42.974;12.082;2023-07-20T13:02:38;97184.88;;;37.17;34.62
62038;BME280;47991;42.974;12.082;2023-07-20T13:05:05;97182.33;;;37.22;34.34
62038;BME280;47991;42.974;12.082;2023-07-20T13:07:41;97182.00;;;37.20;35.14
62038;BME280;47991;42.974;12.082;2023-07-20T13:10:10;97184.02;;;37.31;34.62
62038;BME280;47991;42.974;12.082;2023-07-20T13:12:38;97183.83;;;37.30;33.96
62038;BME280;47991;42.974;12.082;2023-07-20T13:15:07;97177.91;;;37.38;35.30
62038;BME280;47991;42.974;12.082;2023-07-20T13:17:36;97176.57;;;37.39;35.93
62038;BME280;47991;42.974;12.082;2023-07-20T13:20:04;97173.34;;;37.40;34.83